Time;durP1;ratioP1;P1;durP2;ratioP2;P2;SDS_P1;SDS_P2;PMS_P1;PMS_P2;Temp;Humidity;BMP_temperature;BMP_pressure;BME280_temperature;BME280_humidity;BME280_pressure;Samples;Min_cycle;Max_cycle;Signal;HPM_P1;HPM_P2
2024/02/23 00:01:56;;;;;;;5.25;3.35;;;;;;;10.41;75.07;97840.97;6155989;22;101445;-82
2024/02/23 00:04:22;;;;;;;4.13;2.97;;;;;;;10.57;75.12;97872.13;6131811;22;96716;-83
2024/02/23 00:06:47;;;;;;;7.90;3.03;;;;;;;10.59;74.51;97865.00;6182443;22;97067;-83
2024/02/23 00:09:13;;;;;;;4.32;2.75;;;;;;;10.70;73.73;97856.31;6156068;22;97870;-83
2024/02/23 00:11:44;;;;;;;4.93;2.90;;;;;;;10.79;73.96;97878.44;6181761;22;97964;-83
2024/02/23 00:14:11;;;;;;;1.73;1.35;;;;;;;10.86;72.90;97867.38;6156844;22;97125;-82
2024/02/23 00:16:40;;;;;;;2.65;1.60;;;;;;;10.96;72.77;97869.31;6131451;22;96847;-82
2024/02/23 00:19:09;;;;;;;2.03;1.23;;;;;;;10.79;72.25;97844.31;6131202;22;100618;-83
2024/02/23 00:21:35;;;;;;;2.03;1.33;;;;;;;10.93;72.43;97867.75;6156398;22;101021;-82
2024/02/23 00:24:00;;;;;;;2.83;1.20;;;;;;;11.02;72.31;97871.47;6129788;22;96713;-83
2024/02/23 00:26:27;;;;;;;1.35;1.05;;;;;;;11.02;72.09;97872.31;6131401;22;97196;-82
2024/02/23 00:28:53;;;;;;;2.58;1.30;;;;;;;11.03;71.53;97853.00;6156646;22;97094;-83
2024/02/23 00:31:18;;;;;;;1.88;1.40;;;;;;;10.83;71.59;97838.75;6181843;22;101356;-82
2024/02/23 00:33:44;;;;;;;1.52;1.17;;;;;;;11.06;71.46;97858.03;6156502;22;96734;-82
2024/02/23 00:36:09;;;;;;;1.33;1.10;;;;;;;11.09;71.86;97868.28;6131382;22;96767;-83
2024/02/23 00:38:35;;;;;;;1.27;1.00;;;;;;;11.16;71.90;97880.97;6179679;22;97945;-82
2024/02/23 00:41:00;;;;;;;1.50;1.10;;;;;;;10.92;72.19;97849.50;6182442;22;97440;-83
2024/02/23 00:43:29;;;;;;;1.90;1.00;;;;;;;10.98;71.85;97878.75;6155301;22;97174;-82
2024/02/23 00:45:54;;;;;;;2.90;1.40;;;;;;;11.07;71.76;97888.56;6129927;22;96802;-83
2024/02/23 00:48:20;;;;;;;1.20;1.00;;;;;;;11.04;72.06;97885.34;6154413;22;101355;-83
2024/02/23 00:50:45;;;;;;;3.13;1.50;;;;;;;11.01;71.78;97864.56;6179509;22;97809;-82
2024/02/23 00:53:11;;;;;;;1.55;1.15;;;;;;;11.09;72.21;97872.72;6180281;22;96722;-82
2024/02/23 00:55:36;;;;;;;1.63;1.02;;;;;;;11.05;72.34;97860.75;6131598;22;97310;-82
2024/02/23 00:58:03;;;;;;;1.15;0.90;;;;;;;11.12;72.64;97884.78;6156189;22;100205;-84
2024/02/23 01:00:29;;;;;;;1.67;1.13;;;;;;;11.14;72.74;97883.72;6156335;22;98262;-82
2024/02/23 01:02:54;;;;;;;2.65;1.48;;;;;;;11.15;72.43;97880.13;6156129;22;96604;-82
2024/02/23 01:05:20;;;;;;;2.60;1.35;;;;;;;11.06;73.18;97873.78;6156345;22;96903;-83
2024/02/23 01:07:46;;;;;;;2.83;1.85;;;;;;;11.08;73.05;97869.25;6156290;22;101545;-82
2024/02/23 01:10:11;;;;;;;2.70;1.27;;;;;;;11.04;72.38;97857.28;6155350;22;97549;-82
2024/02/23 01:12:37;;;;;;;1.73;1.33;;;;;;;11.12;71.78;97861.97;6156003;22;97152;-82
2024/02/23 01:15:03;;;;;;;2.55;1.30;;;;;;;11.13;72.05;97865.44;6155984;22;97265;-83
2024/02/23 01:17:28;;;;;;;2.22;1.60;;;;;;;11.07;71.57;97850.97;6181104;22;97453;-82
2024/02/23 01:19:54;;;;;;;2.08;1.38;;;;;;;11.18;71.49;97860.69;6156426;22;97977;-83
2024/02/23 01:22:19;;;;;;;1.90;1.50;;;;;;;11.02;71.31;97830.31;6156504;22;97116;-83
2024/02/23 01:24:45;;;;;;;3.80;1.25;;;;;;;11.17;70.92;97869.50;6131691;22;96893;-83
2024/02/23 01:27:10;;;;;;;2.45;1.52;;;;;;;11.17;71.00;97869.50;6130142;22;101243;-82
2024/02/23 01:29:36;;;;;;;2.15;1.30;;;;;;;11.06;71.05;97844.06;6156673;22;97551;-83
2024/02/23 01:32:02;;;;;;;3.72;1.42;;;;;;;11.05;71.04;97852.88;6181650;22;97229;-83
2024/02/23 01:34:27;;;;;;;1.20;1.10;;;;;;;11.20;70.96;97879.75;6156628;22;97076;-82
2024/02/23 01:36:53;;;;;;;1.30;1.13;;;;;;;11.10;71.44;97856.00;6156065;22;97577;-83
2024/02/23 01:39:18;;;;;;;1.20;1.10;;;;;;;10.98;71.61;97847.25;6180901;22;97404;-82
2024/02/23 01:41:44;;;;;;;2.15;1.20;;;;;;;11.01;71.07;97841.78;6181363;22;96728;-82
2024/02/23 01:44:10;;;;;;;2.22;1.50;;;;;;;11.04;71.60;97852.03;6131939;22;96902;-82
2024/02/23 01:46:36;;;;;;;1.30;1.10;;;;;;;10.93;71.57;97838.03;6180747;22;97798;-82
2024/02/23 01:49:02;;;;;;;2.78;1.30;;;;;;;10.92;71.63;97852.13;6155910;22;101156;-83
2024/02/23 01:51:28;;;;;;;1.63;1.30;;;;;;;10.90;71.85;97846.97;6155703;22;96648;-83
2024/02/23 01:53:53;;;;;;;2.97;1.35;;;;;;;10.84;71.86;97823.81;6181693;22;96637;-82
2024/02/23 01:56:20;;;;;;;2.70;1.60;;;;;;;10.84;72.08;97834.31;6155494;22;101658;-82
2024/02/23 01:58:46;;;;;;;1.50;1.20;;;;;;;10.74;72.31;97823.69;6155966;22;100869;-82
2024/02/23 02:01:12;;;;;;;2.00;1.42;;;;;;;10.76;71.85;97815.69;6155480;22;97164;-83
2024/02/23 02:03:40;;;;;;;2.88;1.90;;;;;;;10.81;71.90;97845.03;6180373;22;97106;-82
2024/02/23 02:06:06;;;;;;;2.58;1.40;;;;;;;10.81;71.73;97819.63;6180759;22;101303;-83
2024/02/23 02:08:35;;;;;;;2.33;1.75;;;;;;;10.73;71.15;97800.16;6155616;22;101205;-82
2024/02/23 02:11:01;;;;;;;2.85;1.80;;;;;;;10.77;71.27;97820.81;6156319;22;96707;-84
2024/02/23 02:13:28;;;;;;;2.83;2.17;;;;;;;10.72;71.01;97816.88;6181598;22;96888;-82
2024/02/23 02:15:53;;;;;;;3.00;2.22;;;;;;;10.62;71.10;97816.72;6180350;22;100930;-83
2024/02/23 02:18:19;;;;;;;2.78;2.33;;;;;;;10.74;71.30;97841.22;6156674;22;101064;-83
2024/02/23 02:20:54;;;;;;;2.53;2.05;;;;;;;10.84;70.61;97858.78;6161412;22;96828;-82
2024/02/23 02:23:20;;;;;;;5.47;2.20;;;;;;;10.87;70.30;97857.72;6186386;22;96900;-83
2024/02/23 02:25:45;;;;;;;3.63;2.13;;;;;;;10.60;70.03;97818.63;6160535;22;101482;-83
2024/02/23 02:28:11;;;;;;;2.10;1.80;;;;;;;10.88;70.16;97880.41;6135557;22;101379;-83
2024/02/23 02:30:37;;;;;;;2.75;2.10;;;;;;;10.83;70.34;97870.22;6186641;22;96633;-83
2024/02/23 02:33:03;;;;;;;2.00;1.80;;;;;;;10.74;70.38;97856.97;6161354;22;96949;-83
2024/02/23 02:35:29;;;;;;;3.83;2.83;;;;;;;10.75;70.23;97864.72;6135397;22;101626;-83
2024/02/23 02:37:54;;;;;;;2.97;2.10;;;;;;;10.85;70.27;97872.75;6160336;22;101470;-82
2024/02/23 02:40:20;;;;;;;3.15;2.20;;;;;;;10.72;70.21;97854.44;6160382;22;96627;-83
2024/02/23 02:42:45;;;;;;;3.05;2.20;;;;;;;10.85;70.24;97873.59;6185823;22;96749;-83
2024/02/23 02:45:11;;;;;;;2.55;2.33;;;;;;;10.73;69.92;97852.66;6160487;22;97926;-82
2024/02/23 02:47:36;;;;;;;3.35;2.75;;;;;;;10.88;69.55;97889.09;6136013;22;101524;-83
2024/02/23 02:50:02;;;;;;;8.23;3.30;;;;;;;10.82;69.71;97891.31;6161859;22;97181;-83
2024/02/23 02:52:28;;;;;;;3.33;2.88;;;;;;;10.77;69.57;97902.19;6161461;22;96894;-83
2024/02/23 02:54:54;;;;;;;4.68;3.13;;;;;;;10.52;69.46;97837.53;6160564;22;101588;-83
2024/02/23 02:57:19;;;;;;;5.80;2.75;;;;;;;10.59;69.64;97848.44;6160592;22;101646;-83
2024/02/23 02:59:45;;;;;;;4.28;2.78;;;;;;;10.82;69.40;97891.31;6135994;22;96676;-83
2024/02/23 03:02:11;;;;;;;3.08;2.67;;;;;;;10.77;69.24;97882.97;6160348;22;97148;-83
2024/02/23 03:04:37;;;;;;;3.50;2.30;;;;;;;10.79;69.61;97886.31;6159930;22;101541;-83
2024/02/23 03:07:03;;;;;;;2.47;2.28;;;;;;;10.81;69.27;97900.16;6160288;22;97393;-83
2024/02/23 03:09:28;;;;;;;3.08;2.40;;;;;;;10.80;69.23;97898.50;6160321;22;96822;-83
2024/02/23 03:11:54;;;;;;;3.58;2.53;;;;;;;10.91;69.04;97908.19;6160749;22;97178;-83
2024/02/23 03:14:20;;;;;;;3.08;2.28;;;;;;;10.97;69.06;97907.75;6134817;22;101344;-84
2024/02/23 03:16:47;;;;;;;3.83;2.53;;;;;;;10.90;69.28;97899.47;6134549;22;101904;-83
2024/02/23 03:19:13;;;;;;;4.82;3.03;;;;;;;10.75;69.41;97883.06;6135031;22;96972;-83
2024/02/23 03:21:38;;;;;;;4.68;2.88;;;;;;;10.64;69.18;97867.28;6186563;22;96745;-83
2024/02/23 03:24:04;;;;;;;14.77;4.43;;;;;;;10.73;69.70;97894.63;6160754;22;101081;-83
2024/02/23 03:26:30;;;;;;;3.40;2.97;;;;;;;10.63;70.01;97881.34;6135099;22;101225;-83
2024/02/23 03:28:55;;;;;;;4.32;3.10;;;;;;;10.70;70.48;97905.34;6159857;22;96574;-83
2024/02/23 03:31:21;;;;;;;4.97;2.70;;;;;;;10.66;70.08;97899.50;6160673;22;97160;-83
2024/02/23 03:33:46;;;;;;;3.85;3.00;;;;;;;10.68;70.09;97902.84;6159939;22;97460;-83
2024/02/23 03:36:12;;;;;;;4.65;2.70;;;;;;;10.87;70.36;97934.66;6160431;22;97774;-83
2024/02/23 03:38:37;;;;;;;4.35;2.92;;;;;;;10.86;70.06;97956.59;6185120;22;97150;-82
2024/02/23 03:41:03;;;;;;;3.15;2.60;;;;;;;10.76;70.14;97936.38;6160684;22;96945;-82
2024/02/23 03:43:29;;;;;;;3.38;2.58;;;;;;;10.86;69.69;97963.66;6185139;22;97991;-82
2024/02/23 03:45:54;;;;;;;4.13;2.65;;;;;;;10.88;69.66;97946.84;6160327;22;98025;-82
2024/02/23 03:48:20;;;;;;;3.92;2.72;;;;;;;11.10;69.41;97979.41;6160269;22;96702;-83
2024/02/23 03:50:46;;;;;;;4.35;2.67;;;;;;;11.10;69.79;97979.41;6160818;22;96791;-83
2024/02/23 03:53:11;;;;;;;2.97;2.30;;;;;;;10.99;69.08;97955.72;6159242;22;101326;-82
2024/02/23 03:55:36;;;;;;;4.75;3.53;;;;;;;11.14;68.99;97991.38;6160297;22;98335;-82
2024/02/23 03:58:03;;;;;;;5.75;2.90;;;;;;;11.13;69.22;97994.09;6135286;22;97023;-83
2024/02/23 04:00:28;;;;;;;3.78;3.15;;;;;;;11.06;69.43;97998.97;6160586;22;96792;-82
2024/02/23 04:02:54;;;;;;;6.03;3.10;;;;;;;11.06;69.14;98006.84;6134841;22;101479;-83
2024/02/23 04:05:19;;;;;;;4.38;2.83;;;;;;;11.13;69.08;98017.72;6185102;22;97775;-83
2024/02/23 04:07:44;;;;;;;3.65;2.63;;;;;;;11.14;68.74;98020.25;6134811;22;97127;-83
2024/02/23 04:10:10;;;;;;;3.13;2.40;;;;;;;11.07;69.09;98029.50;6159799;22;97236;-83
2024/02/23 04:12:36;;;;;;;3.60;2.67;;;;;;;11.13;69.21;98034.31;6134738;22;101490;-83
2024/02/23 04:15:01;;;;;;;4.20;2.67;;;;;;;11.06;69.25;98025.22;6160283;22;101032;-83
2024/02/23 04:17:27;;;;;;;6.45;3.05;;;;;;;11.17;69.03;98051.53;6161247;22;96533;-82
2024/02/23 04:19:52;;;;;;;4.07;3.20;;;;;;;11.04;69.05;98041.06;6141097;22;97302;-83
2024/02/23 04:22:18;;;;;;;3.40;2.55;;;;;;;11.01;69.01;98027.31;6155730;22;101130;-85
2024/02/23 04:24:43;;;;;;;5.18;3.47;;;;;;;11.03;68.75;98028.06;6131368;22;101110;-83
2024/02/23 04:27:09;;;;;;;5.88;2.60;;;;;;;11.04;69.22;98040.22;6131250;22;96606;-82
2024/02/23 04:29:34;;;;;;;2.95;2.35;;;;;;;11.07;68.62;98037.38;6131833;22;96715;-82
2024/02/23 04:32:01;;;;;;;3.63;2.53;;;;;;;10.95;68.52;98025.16;6106119;22;101113;-82
2024/02/23 04:34:27;;;;;;;3.05;2.08;;;;;;;11.01;68.56;98045.69;6131906;22;100971;-82
2024/02/23 04:36:52;;;;;;;2.70;2.20;;;;;;;10.97;68.80;98034.59;6106261;22;97088;-83
2024/02/23 04:39:18;;;;;;;3.47;2.25;;;;;;;10.97;68.71;98058.22;6131320;22;97420;-83
2024/02/23 04:41:43;;;;;;;2.90;2.30;;;;;;;10.90;68.63;98040.38;6130400;22;101821;-82
2024/02/23 04:44:09;;;;;;;4.25;3.00;;;;;;;10.90;69.07;98054.34;6131046;22;100950;-82
2024/02/23 04:46:34;;;;;;;5.43;3.17;;;;;;;10.84;68.80;98044.28;6106019;22;96781;-84
2024/02/23 04:49:01;;;;;;;6.07;2.97;;;;;;;10.85;68.76;98056.47;6106740;22;96955;-84
2024/02/23 04:51:27;;;;;;;3.35;2.58;;;;;;;10.87;68.84;98059.81;6131133;22;97942;-82
2024/02/23 04:53:52;;;;;;;4.00;2.85;;;;;;;10.88;68.85;98066.75;6131283;22;101509;-82
2024/02/23 04:56:18;;;;;;;3.03;2.55;;;;;;;10.90;68.88;98061.38;6131315;22;96997;-85
2024/02/23 04:58:44;;;;;;;3.25;2.72;;;;;;;10.64;69.12;98029.94;6106802;22;96802;-84
2024/02/23 05:01:10;;;;;;;3.67;2.45;;;;;;;10.89;69.41;98078.91;6156021;22;97890;-82
2024/02/23 05:03:36;;;;;;;3.25;2.58;;;;;;;10.85;68.67;98082.72;6130761;22;100029;-82
2024/02/23 05:06:05;;;;;;;4.35;3.13;;;;;;;10.88;68.47;98087.75;6131139;22;96670;-82
2024/02/23 05:08:31;;;;;;;3.58;3.22;;;;;;;10.86;68.98;98084.38;6105300;22;96809;-83
2024/02/23 05:10:57;;;;;;;4.03;2.67;;;;;;;10.91;68.92;98095.41;6156148;22;97896;-82
2024/02/23 05:13:23;;;;;;;4.35;3.10;;;;;;;10.84;68.55;98092.34;6130369;22;100890;-82
2024/02/23 05:15:48;;;;;;;4.43;2.90;;;;;;;10.79;69.15;98096.25;6130882;22;96715;-83
2024/02/23 05:18:14;;;;;;;7.57;3.17;;;;;;;10.71;69.43;98088.94;6130591;22;96670;-82
2024/02/23 05:20:40;;;;;;;4.18;3.25;;;;;;;10.84;69.21;98088.88;6136065;22;101418;-83
2024/02/23 05:23:05;;;;;;;4.70;3.33;;;;;;;10.90;69.44;98109.44;6161436;22;101699;-83
2024/02/23 05:25:31;;;;;;;3.75;2.83;;;;;;;10.87;69.10;98104.41;6135234;22;96994;-82
2024/02/23 05:27:56;;;;;;;6.60;3.67;;;;;;;10.70;68.98;98086.38;6159319;22;96968;-83
2024/02/23 05:30:22;;;;;;;4.65;3.05;;;;;;;10.98;69.15;98132.56;6133666;22;101443;-83
2024/02/23 05:32:48;;;;;;;4.28;2.65;;;;;;;10.89;68.70;98123.53;6159367;22;100934;-83
2024/02/23 05:35:13;;;;;;;6.53;2.80;;;;;;;10.95;68.72;98130.16;6158441;22;97254;-84
2024/02/23 05:37:39;;;;;;;4.65;3.45;;;;;;;11.06;68.88;98154.69;6183201;22;97195;-83
2024/02/23 05:40:09;;;;;;;3.63;2.60;;;;;;;10.99;68.42;98152.59;6132205;22;101697;-82
2024/02/23 05:42:38;;;;;;;3.28;2.80;;;;;;;10.98;68.41;98149.13;6155280;22;101203;-81
2024/02/23 05:45:04;;;;;;;4.03;2.88;;;;;;;10.98;68.93;98150.94;6182648;22;96744;-82
2024/02/23 05:47:33;;;;;;;4.43;2.97;;;;;;;11.04;68.93;98171.50;6160206;22;96694;-84
2024/02/23 05:49:58;;;;;;;4.88;3.33;;;;;;;10.97;68.79;98154.50;6183844;22;97925;-82
2024/02/23 05:52:24;;;;;;;4.53;3.05;;;;;;;10.99;68.26;98157.84;6159495;22;101246;-77
2024/02/23 05:54:51;;;;;;;3.83;2.63;;;;;;;10.96;68.14;98148.41;6156928;22;97071;-78
2024/02/23 05:57:17;;;;;;;4.70;2.80;;;;;;;11.14;68.57;98179.56;6158481;22;96833;-73
2024/02/23 05:59:42;;;;;;;4.55;3.08;;;;;;;11.15;68.07;98178.63;6210605;22;97905;-73
2024/02/23 06:02:08;;;;;;;5.00;3.15;;;;;;;11.09;67.97;98178.09;6157938;22;101594;-73
2024/02/23 06:04:34;;;;;;;4.47;2.90;;;;;;;11.07;68.39;98172.13;6157806;22;96664;-73
2024/02/23 06:06:59;;;;;;;6.90;2.70;;;;;;;11.19;67.75;98194.03;6185098;22;97068;-77
2024/02/23 06:09:25;;;;;;;7.90;2.67;;;;;;;11.21;67.06;98200.03;6158095;22;97429;-78
2024/02/23 06:11:50;;;;;;;4.00;2.53;;;;;;;11.23;67.13;98227.03;6158866;22;101624;-78
2024/02/23 06:14:16;;;;;;;5.78;2.33;;;;;;;11.08;66.75;98183.44;6179731;22;97133;-78
2024/02/23 06:16:41;;;;;;;9.57;2.50;;;;;;;11.32;66.55;98225.56;6207850;22;96973;-77
2024/02/23 06:19:07;;;;;;;4.07;2.20;;;;;;;11.27;65.99;98206.66;6154498;22;98122;-78
2024/02/23 06:21:32;;;;;;;7.03;2.17;;;;;;;11.37;66.01;98218.16;6129796;22;100903;-81
2024/02/23 06:23:58;;;;;;;5.10;2.33;;;;;;;11.41;65.96;98235.41;6180167;22;97171;-81
2024/02/23 06:26:24;;;;;;;5.20;2.78;;;;;;;11.33;65.40;98225.44;6156317;22;97018;-78
2024/02/23 06:28:49;;;;;;;2.58;1.95;;;;;;;11.44;65.48;98243.06;6179248;22;98076;-78
2024/02/23 06:31:15;;;;;;;3.53;2.10;;;;;;;11.47;65.02;98240.22;6155968;22;97301;-80
2024/02/23 06:33:41;;;;;;;6.03;2.03;;;;;;;11.52;65.12;98247.81;6180749;22;97096;-77
2024/02/23 06:36:07;;;;;;;3.03;1.90;;;;;;;11.55;64.71;98260.72;6149825;22;97386;-82
2024/02/23 06:38:33;;;;;;;3.40;1.70;;;;;;;11.53;64.36;98249.47;6173221;22;101234;-80
2024/02/23 06:40:59;;;;;;;3.40;1.92;;;;;;;11.36;64.41;98234.88;6124349;22;101193;-81
2024/02/23 06:43:24;;;;;;;3.70;1.83;;;;;;;11.52;64.34;98266.19;6119356;22;97576;-83
2024/02/23 06:45:50;;;;;;;2.70;1.60;;;;;;;11.58;63.75;98271.00;6151490;22;97261;-84
2024/02/23 06:48:16;;;;;;;3.25;1.63;;;;;;;11.55;63.78;98279.94;6155536;22;97899;-82
2024/02/23 06:50:41;;;;;;;2.65;1.80;;;;;;;11.56;63.30;98276.38;6152210;22;97608;-83
2024/02/23 06:53:07;;;;;;;3.83;2.08;;;;;;;11.63;63.05;98275.94;6124811;22;97137;-85
2024/02/23 06:55:34;;;;;;;5.25;1.83;;;;;;;11.69;63.42;98278.97;6147953;22;97244;-83
2024/02/23 06:57:59;;;;;;;4.93;2.17;;;;;;;11.76;62.99;98282.00;6148080;22;101225;-84
2024/02/23 07:00:25;;;;;;;2.63;1.80;;;;;;;11.55;62.47;98261.56;6179349;22;101688;-82
2024/02/23 07:02:51;;;;;;;2.47;1.70;;;;;;;11.63;62.58;98254.91;6158802;22;96769;-85
2024/02/23 07:05:16;;;;;;;3.45;1.65;;;;;;;11.75;62.05;98281.16;6132624;22;97101;-82
2024/02/23 07:07:42;;;;;;;4.40;1.85;;;;;;;11.76;62.15;98282.84;6157915;22;100521;-82
2024/02/23 07:10:08;;;;;;;2.50;1.60;;;;;;;11.80;62.39;98293.97;6183248;22;97809;-82
2024/02/23 07:12:34;;;;;;;3.80;1.58;;;;;;;11.70;61.75;98283.28;6157289;22;97403;-83
2024/02/23 07:14:59;;;;;;;4.60;1.48;;;;;;;11.75;61.83;98298.69;6154392;22;97641;-76
2024/02/23 07:17:25;;;;;;;2.95;1.67;;;;;;;11.94;62.10;98301.75;6208857;22;98419;-74
2024/02/23 07:19:51;;;;;;;2.92;1.60;;;;;;;11.97;61.74;98309.41;6157185;22;97326;-76
2024/02/23 07:22:18;;;;;;;1.95;1.65;;;;;;;11.85;61.60;98298.91;6158415;22;96670;-76
2024/02/23 07:24:44;;;;;;;3.25;1.65;;;;;;;11.91;61.08;98311.66;6183975;22;97421;-77
2024/02/23 07:27:10;;;;;;;3.03;1.77;;;;;;;11.90;61.14;98309.97;6157551;22;100993;-76
2024/02/23 07:29:35;;;;;;;1.98;1.70;;;;;;;11.90;61.23;98308.19;6157869;22;97202;-76
2024/02/23 07:32:01;;;;;;;2.58;1.42;;;;;;;11.91;60.60;98309.84;6183132;22;96657;-77
2024/02/23 07:34:27;;;;;;;2.78;1.45;;;;;;;11.88;61.02;98306.63;6182575;22;96802;-80
2024/02/23 07:36:53;;;;;;;3.30;1.63;;;;;;;11.95;60.69;98313.94;6158022;22;98339;-79
2024/02/23 07:39:19;;;;;;;5.38;1.85;;;;;;;11.95;60.70;98321.00;6181778;22;97955;-80
2024/02/23 07:41:44;;;;;;;4.80;1.65;;;;;;;11.99;60.63;98322.47;6158560;22;96676;-79
2024/02/23 07:44:10;;;;;;;4.93;1.90;;;;;;;11.77;60.53;98296.81;6183139;22;97134;-78
2024/02/23 07:46:36;;;;;;;5.43;2.22;;;;;;;12.05;60.59;98323.81;6131512;22;100917;-77
2024/02/23 07:49:02;;;;;;;6.40;2.05;;;;;;;12.01;60.39;98325.81;6159495;22;101421;-82
2024/02/23 07:51:28;;;;;;;4.57;2.35;;;;;;;12.03;60.49;98318.66;6159243;22;97366;-84
2024/02/23 07:53:54;;;;;;;3.67;2.10;;;;;;;12.13;60.22;98343.38;6155157;22;97845;-84
2024/02/23 07:56:20;;;;;;;5.45;2.05;;;;;;;12.08;59.96;98332.31;6125931;22;101404;-84
2024/02/23 07:58:46;;;;;;;4.47;2.05;;;;;;;11.99;59.85;98317.22;6155119;22;100878;-84
2024/02/23 08:01:14;;;;;;;2.67;1.73;;;;;;;11.97;60.10;98309.41;6155465;22;97261;-83
2024/02/23 08:03:40;;;;;;;2.92;1.60;;;;;;;11.98;59.36;98324.25;6154501;22;97319;-84
2024/02/23 08:06:06;;;;;;;9.70;2.03;;;;;;;12.22;59.99;98355.00;6155528;22;101208;-84
2024/02/23 08:08:34;;;;;;;2.92;1.48;;;;;;;12.05;59.12;98322.03;6154254;22;97817;-84
2024/02/23 08:11:03;;;;;;;3.72;1.67;;;;;;;12.34;59.19;98371.69;6130359;22;97174;-87
2024/02/23 08:13:29;;;;;;;11.02;1.90;;;;;;;12.33;58.75;98364.75;6131529;22;96798;-84
2024/02/23 08:15:55;;;;;;;7.35;1.95;;;;;;;12.44;58.23;98385.84;6155332;22;101227;-84
2024/02/23 08:18:22;;;;;;;5.38;1.50;;;;;;;12.44;58.45;98386.69;6128014;22;101645;-85
2024/02/23 08:20:48;;;;;;;3.03;1.40;;;;;;;12.45;58.32;98359.44;6155890;22;97349;-87
2024/02/23 08:23:13;;;;;;;6.30;1.77;;;;;;;12.86;57.83;98392.44;6130916;22;97196;-85
2024/02/23 08:25:39;;;;;;;3.30;1.60;;;;;;;12.76;57.68;98358.97;6154136;22;99572;-84
2024/02/23 08:28:05;;;;;;;3.08;1.90;;;;;;;12.88;57.22;98376.50;6154066;22;101097;-86
2024/02/23 08:30:31;;;;;;;3.67;2.03;;;;;;;12.76;57.62;98356.34;6156215;22;96685;-86
2024/02/23 08:32:57;;;;;;;6.25;1.80;;;;;;;12.96;57.15;98395.22;6179290;22;97367;-83
2024/02/23 08:35:22;;;;;;;4.38;2.20;;;;;;;12.79;57.51;98370.13;6125339;22;101616;-84
2024/02/23 08:37:48;;;;;;;2.50;1.83;;;;;;;12.91;57.99;98382.41;6150023;22;101363;-85
2024/02/23 08:40:13;;;;;;;7.00;2.80;;;;;;;12.86;57.70;98392.44;6176958;22;97157;-85
2024/02/23 08:42:39;;;;;;;5.82;2.20;;;;;;;12.91;57.83;98431.56;6154692;22;97273;-84
2024/02/23 08:45:05;;;;;;;4.03;2.30;;;;;;;12.86;58.93;98439.81;6154989;22;101121;-88
2024/02/23 08:47:35;;;;;;;2.67;1.30;;;;;;;12.66;54.33;98443.06;6154670;22;101494;-84
2024/02/23 08:50:01;;;;;;;9.48;1.90;;;;;;;12.51;52.77;98410.81;6155589;22;97086;-86
2024/02/23 08:52:26;;;;;;;5.55;2.40;;;;;;;12.64;51.05;98443.16;6153321;22;97543;-86
2024/02/23 08:54:52;;;;;;;5.50;1.13;;;;;;;12.69;50.37;98466.53;6151803;22;101413;-85
2024/02/23 08:57:19;;;;;;;5.10;1.23;;;;;;;12.66;49.96;98464.97;6179448;22;97885;-84
2024/02/23 08:59:46;;;;;;;4.22;1.27;;;;;;;12.47;50.62;98435.63;6181099;22;97120;-87
2024/02/23 09:02:11;;;;;;;2.90;1.38;;;;;;;12.55;49.67;98466.69;6182129;22;97094;-85
2024/02/23 09:04:37;;;;;;;3.85;1.27;;;;;;;12.42;49.33;98469.31;6154598;22;98003;-87
2024/02/23 09:07:03;;;;;;;3.83;1.02;;;;;;;12.38;49.40;98483.66;6156813;22;100515;-84
2024/02/23 09:09:28;;;;;;;4.50;1.90;;;;;;;12.54;50.08;98489.53;6129518;22;97141;-85
2024/02/23 09:11:54;;;;;;;6.80;1.48;;;;;;;12.51;49.97;98486.25;6181399;22;97217;-87
2024/02/23 09:14:19;;;;;;;3.72;1.40;;;;;;;12.66;49.65;98499.19;6131298;22;101925;-86
2024/02/23 09:16:47;;;;;;;4.10;1.45;;;;;;;12.55;49.86;98474.56;6156323;22;98301;-84
2024/02/23 09:19:13;;;;;;;4.63;1.30;;;;;;;12.64;49.29;98490.53;6155145;22;97255;-86
2024/02/23 09:21:38;;;;;;;8.50;1.08;;;;;;;12.64;49.39;98508.97;6156231;22;97183;-87
2024/02/23 09:24:05;;;;;;;6.22;1.38;;;;;;;12.68;49.48;98506.94;6127551;22;101231;-88
2024/02/23 09:26:31;;;;;;;7.55;1.10;;;;;;;12.71;49.53;98509.34;6174640;22;97857;-87
2024/02/23 09:28:56;;;;;;;2.35;0.90;;;;;;;12.79;49.70;98516.72;6126168;22;97161;-88
2024/02/23 09:31:22;;;;;;;5.85;1.25;;;;;;;12.65;49.21;98508.03;6152013;22;97179;-86
2024/02/23 09:33:50;;;;;;;2.75;0.85;;;;;;;12.71;49.43;98521.69;6200114;22;97544;-88
2024/02/23 09:36:16;;;;;;;2.50;0.93;;;;;;;12.69;49.28;98520.00;6178079;22;97543;-87
2024/02/23 09:38:42;;;;;;;4.20;1.02;;;;;;;12.63;49.16;98517.00;6148439;22;97743;-85
2024/02/23 09:41:12;;;;;;;5.72;1.55;;;;;;;12.66;49.25;98501.81;6126042;22;97477;-86
2024/02/23 09:43:37;;;;;;;7.97;1.35;;;;;;;12.67;49.28;98503.47;6177344;22;99116;-86
2024/02/23 09:46:03;;;;;;;7.90;1.45;;;;;;;12.83;48.79;98519.03;6152198;22;101196;-87
2024/02/23 09:48:29;;;;;;;2.38;1.17;;;;;;;12.88;48.85;98516.06;6175347;22;96990;-86
2024/02/23 09:50:56;;;;;;;8.27;1.20;;;;;;;12.85;48.98;98511.00;6153232;22;97224;-90
2024/02/23 09:53:22;;;;;;;5.22;1.30;;;;;;;12.85;49.67;98498.69;6152268;22;101436;-84
2024/02/23 09:55:51;;;;;;;6.28;1.08;;;;;;;13.04;48.55;98540.34;6150795;22;99785;-87
2024/02/23 09:58:17;;;;;;;6.93;1.23;;;;;;;13.04;48.41;98536.88;6149450;22;97509;-88
2024/02/23 10:00:43;;;;;;;8.73;1.42;;;;;;;12.95;48.39;98532.28;6152607;22;97089;-85
2024/02/23 10:03:09;;;;;;;3.55;1.30;;;;;;;12.99;48.37;98525.81;6150163;22;98536;-85
2024/02/23 10:05:34;;;;;;;6.35;1.50;;;;;;;12.94;47.98;98523.50;6148823;22;101133;-85
2024/02/23 10:08:00;;;;;;;9.15;1.20;;;;;;;13.07;48.60;98547.19;6126262;22;96747;-85
2024/02/23 10:10:46;;;;;;;7.45;0.98;;;;;;;12.98;48.35;98543.44;6150979;22;97368;-85
2024/02/23 10:13:11;;;;;;;5.55;1.58;;;;;;;12.89;47.77;98529.13;6175997;22;97516;-84
2024/02/23 10:15:37;;;;;;;12.88;1.52;;;;;;;13.06;47.61;98550.75;6177133;22;98264;-85
2024/02/23 10:18:04;;;;;;;13.00;1.38;;;;;;;13.13;48.14;98562.56;6176787;22;97753;-86
2024/02/23 10:20:29;;;;;;;2.67;1.08;;;;;;;13.02;47.45;98541.41;6146765;22;97222;-84
2024/02/23 10:22:56;;;;;;;3.35;0.93;;;;;;;13.26;47.55;98586.22;6146028;22;97980;-86
2024/02/23 10:25:22;;;;;;;3.30;1.23;;;;;;;13.20;47.71;98586.66;6146891;22;101125;-86
2024/02/23 10:27:47;;;;;;;9.43;0.80;;;;;;;12.99;47.93;98574.06;6145412;22;97542;-86
2024/02/23 10:30:14;;;;;;;7.00;1.30;;;;;;;13.18;48.14;98599.94;6119259;22;96960;-86
2024/02/23 10:32:41;;;;;;;3.60;1.25;;;;;;;13.20;48.59;98600.66;6146845;22;101430;-84
2024/02/23 10:35:18;;;;;;;4.25;1.20;;;;;;;12.95;49.30;98556.81;6145981;22;101653;-86
2024/02/23 10:37:47;;;;;;;4.97;1.20;;;;;;;12.94;49.64;98559.53;6144126;22;97242;-86
2024/02/23 10:40:15;;;;;;;2.05;0.82;;;;;;;13.10;49.44;98576.78;6147399;22;97366;-84
2024/02/23 10:42:47;;;;;;;3.60;1.08;;;;;;;13.13;49.76;98567.81;6121782;22;101477;-84
2024/02/23 10:45:15;;;;;;;2.42;0.80;;;;;;;13.32;49.97;98602.47;6146215;22;98515;-84
2024/02/23 10:47:41;;;;;;;3.58;1.13;;;;;;;13.23;49.46;98596.97;6169741;22;97568;-87
2024/02/23 10:50:07;;;;;;;2.92;1.00;;;;;;;13.26;49.46;98591.50;6172479;22;97059;-86
2024/02/23 10:52:33;;;;;;;2.22;1.23;;;;;;;13.40;49.00;98599.25;6145603;22;101969;-83
2024/02/23 10:55:04;;;;;;;4.70;1.38;;;;;;;13.35;48.94;98602.25;6145614;22;97594;-88
2024/02/23 10:57:32;;;;;;;3.78;1.25;;;;;;;13.28;48.66;98585.19;6148171;22;96783;-83
2024/02/23 10:59:58;;;;;;;3.28;1.25;;;;;;;13.47;49.16;98597.03;6171339;22;97382;-83
2024/02/23 11:02:24;;;;;;;5.30;1.33;;;;;;;13.47;48.33;98595.22;6144926;22;101564;-87
2024/02/23 11:04:50;;;;;;;2.33;1.05;;;;;;;13.46;48.40;98590.06;6121427;22;101511;-84
2024/02/23 11:07:19;;;;;;;2.70;1.30;;;;;;;13.44;48.32;98595.47;6172674;22;97248;-86
2024/02/23 11:09:49;;;;;;;2.83;1.58;;;;;;;13.42;47.94;98583.34;6144323;22;97799;-84
2024/02/23 11:12:25;;;;;;;4.05;1.27;;;;;;;13.67;47.00;98596.41;6145744;22;101013;-85
2024/02/23 11:14:51;;;;;;;9.68;1.70;;;;;;;13.64;49.46;98611.59;6121389;22;100912;-84
2024/02/23 11:17:21;;;;;;;8.18;2.40;;;;;;;13.67;49.25;98603.44;6146539;22;97395;-83
2024/02/23 11:19:50;;;;;;;4.03;2.10;;;;;;;13.54;50.03;98572.72;6169866;22;97446;-81
2024/02/23 11:22:33;;;;;;;3.35;1.63;;;;;;;13.85;49.32;98601.28;6147183;22;97527;-78
2024/02/23 11:25:06;;;;;;;4.03;1.30;;;;;;;13.86;49.78;98598.50;6174946;22;97898;-81
2024/02/23 11:27:33;;;;;;;2.92;1.50;;;;;;;13.96;48.81;98585.44;6147761;22;97316;-84